sensor_id;sensor_type;location;lat;lon;timestamp;pressure;altitude;pressure_sealevel;temperature;humidity
54369;BME280;40266;52.434;17.056;2023-07-29T13:42:20;99610.00;;;27.10;57.25
54369;BME280;40266;52.434;17.056;2023-07-29T13:45:04;99606.48;;;27.07;56.46
54369;BME280;40266;52.434;17.056;2023-07-29T13:47:48;99614.58;;;27.00;56.74
54369;BME280;40266;52.434;17.056;2023-07-29T13:50:31;99617.86;;;26.93;56.78
54369;BME280;40266;52.434;17.056;2023-07-29T13:53:14;99611.65;;;26.85;57.36
54369;BME280;40266;52.434;17.056;2023-07-29T13:55:57;99599.15;;;26.78;57.34
54369;BME280;40266;52.434;17.056;2023-07-29T13:58:40;99600.10;;;26.70;58.01
54369;BME280;40266;52.434;17.056;2023-07-29T14:01:23;99620.36;;;26.54;58.47
54369;BME280;40266;52.434;17.056;2023-07-29T14:04:06;99633.36;;;26.17;60.55
54369;BME280;40266;52.434;17.056;2023-07-29T14:06:49;99647.13;;;25.77;62.45
54369;BME280;40266;52.434;17.056;2023-07-29T14:09:40;99658.95;;;25.39;64.43
54369;BME280;40266;52.434;17.056;2023-07-29T14:12:25;99659.14;;;25.03;66.09
54369;BME280;40266;52.434;17.056;2023-07-29T14:15:08;99654.88;;;24.58;67.75
54369;BME280;40266;52.434;17.056;2023-07-29T14:17:51;99648.71;;;24.18;69.44
54369;BME280;40266;52.434;17.056;2023-07-29T14:20:34;99655.88;;;23.92;70.89
54369;BME280;40266;52.434;17.056;2023-07-29T14:23:17;99654.91;;;23.69;73.13
54369;BME280;40266;52.434;17.056;2023-07-29T14:26:00;99637.20;;;23.37;74.21
54369;BME280;40266;52.434;17.056;2023-07-29T14:28:43;99637.42;;;23.20;75.70
54369;BME280;40266;52.434;17.056;2023-07-29T14:31:26;99649.02;;;23.11;77.27
54369;BME280;40266;52.434;17.056;2023-07-29T14:34:09;99655.60;;;23.05;78.73
54369;BME280;40266;52.434;17.056;2023-07-29T14:36:53;99667.58;;;22.98;79.98
54369;BME280;40266;52.434;17.056;2023-07-29T14:39:36;99659.64;;;22.95;80.73
54369;BME280;40266;52.434;17.056;2023-07-29T14:42:19;99657.34;;;22.94;81.53
54369;BME280;40266;52.434;17.056;2023-07-29T14:45:02;99649.80;;;22.89;81.50
54369;BME280;40266;52.434;17.056;2023-07-29T14:47:45;99646.45;;;22.91;82.01
54369;BME280;40266;52.434;17.056;2023-07-29T14:50:28;99641.52;;;22.86;81.89
54369;BME280;40266;52.434;17.056;2023-07-29T14:53:11;99644.54;;;22.74;80.10
54369;BME280;40266;52.434;17.056;2023-07-29T14:55:54;99645.29;;;22.54;78.94
54369;BME280;40266;52.434;17.056;2023-07-29T14:58:37;99644.02;;;22.37;78.50
54369;BME280;40266;52.434;17.056;2023-07-29T15:01:20;99645.38;;;22.25;78.65
54369;BME280;40266;52.434;17.056;2023-07-29T15:04:03;99647.80;;;22.24;78.77
54369;BME280;40266;52.434;17.056;2023-07-29T15:06:46;99641.85;;;22.29;79.18
54369;BME280;40266;52.434;17.056;2023-07-29T15:09:29;99633.35;;;22.41;79.12
54369;BME280;40266;52.434;17.056;2023-07-29T15:12:12;99626.96;;;22.56;79.09
54369;BME280;40266;52.434;17.056;2023-07-29T15:14:55;99610.11;;;22.75;79.25
54369;BME280;40266;52.434;17.056;2023-07-29T15:17:38;99601.41;;;22.93;79.12
54369;BME280;40266;52.434;17.056;2023-07-29T15:20:21;99591.73;;;23.09;79.27
54369;BME280;40266;52.434;17.056;2023-07-29T15:23:04;99593.47;;;23.17;78.95
54369;BME280;40266;52.434;17.056;2023-07-29T15:25:47;99591.41;;;23.16;78.92
54369;BME280;40266;52.434;17.056;2023-07-29T15:28:31;99594.77;;;23.19;79.48
54369;BME280;40266;52.434;17.056;2023-07-29T15:31:14;99599.25;;;23.20;79.85
54369;BME280;40266;52.434;17.056;2023-07-29T15:33:58;99601.27;;;23.22;80.32
54369;BME280;40266;52.434;17.056;2023-07-29T15:36:41;99600.27;;;23.25;81.02
54369;BME280;40266;52.434;17.056;2023-07-29T15:39:24;99596.46;;;23.22;80.40
54369;BME280;40266;52.434;17.056;2023-07-29T15:42:07;99591.56;;;23.15;80.41
54369;BME280;40266;52.434;17.056;2023-07-29T15:44:50;99584.23;;;23.09;80.63
54369;BME280;40266;52.434;17.056;2023-07-29T15:47:33;99580.37;;;23.02;80.74
54369;BME280;40266;52.434;17.056;2023-07-29T15:50:16;99580.71;;;22.96;81.16
54369;BME280;40266;52.434;17.056;2023-07-29T15:52:59;99584.44;;;22.88;81.30
54369;BME280;40266;52.434;17.056;2023-07-29T15:55:42;99583.55;;;22.77;81.44
54369;BME280;40266;52.434;17.056;2023-07-29T15:58:25;99583.36;;;22.65;82.13
54369;BME280;40266;52.434;17.056;2023-07-29T16:01:08;99578.84;;;22.45;82.71
54369;BME280;40266;52.434;17.056;2023-07-29T16:03:50;99581.70;;;22.18;83.62
54369;BME280;40266;52.434;17.056;2023-07-29T16:06:34;99580.42;;;21.99;84.43
54369;BME280;40266;52.434;17.056;2023-07-29T16:09:20;99584.13;;;21.86;84.88
54369;BME280;40266;52.434;17.056;2023-07-29T16:12:04;99588.25;;;21.78;85.97
54369;BME280;40266;52.434;17.056;2023-07-29T16:14:47;99597.41;;;21.68;86.17
54369;BME280;40266;52.434;17.056;2023-07-29T16:17:30;99600.84;;;21.58;86.66
54369;BME280;40266;52.434;17.056;2023-07-29T16:20:13;99598.66;;;21.50;87.45
54369;BME280;40266;52.434;17.056;2023-07-29T16:22:55;99600.49;;;21.38;87.96
54369;BME280;40266;52.434;17.056;2023-07-29T16:25:38;99599.81;;;21.21;88.50
54369;BME280;40266;52.434;17.056;2023-07-29T16:28:21;99597.69;;;21.08;89.44
54369;BME280;40266;52.434;17.056;2023-07-29T16:31:04;99601.14;;;20.98;90.38
54369;BME280;40266;52.434;17.056;2023-07-29T16:33:48;99600.80;;;20.91;91.16
54369;BME280;40266;52.434;17.056;2023-07-29T16:36:33;99595.54;;;20.85;91.59
54369;BME280;40266;52.434;17.056;2023-07-29T16:39:17;99592.23;;;20.79;92.47
54369;BME280;40266;52.434;17.056;2023-07-29T16:42:00;99591.19;;;20.75;92.41
54369;BME280;40266;52.434;17.056;2023-07-29T16:44:47;99601.72;;;20.72;92.78
54369;BME280;40266;52.434;17.056;2023-07-29T16:47:30;99645.57;;;20.72;93.53
54369;BME280;40266;52.434;17.056;2023-07-29T16:50:13;99649.41;;;20.58;92.42
54369;BME280;40266;52.434;17.056;2023-07-29T16:52:56;99657.79;;;20.29;90.25
54369;BME280;40266;52.434;17.056;2023-07-29T16:55:41;99668.02;;;20.10;89.77
54369;BME280;40266;52.434;17.056;2023-07-29T16:58:24;99667.27;;;19.83;89.81
54369;BME280;40266;52.434;17.056;2023-07-29T17:01:07;99674.86;;;19.56;89.73
54369;BME280;40266;52.434;17.056;2023-07-29T17:03:50;99681.98;;;19.30;90.25
54369;BME280;40266;52.434;17.056;2023-07-29T17:06:33;99689.70;;;19.13;91.15
54369;BME280;40266;52.434;17.056;2023-07-29T17:09:16;99710.95;;;18.94;91.78
54369;BME280;40266;52.434;17.056;2023-07-29T17:12:01;99715.37;;;18.79;92.96
54369;BME280;40266;52.434;17.056;2023-07-29T17:14:44;99719.16;;;18.61;94.24
54369;BME280;40266;52.434;17.056;2023-07-29T17:17:27;99707.80;;;18.43;95.16
54369;BME280;40266;52.434;17.056;2023-07-29T17:20:10;99702.16;;;18.21;96.76
54369;BME280;40266;52.434;17.056;2023-07-29T17:22:53;99712.52;;;17.91;98.36
54369;BME280;40266;52.434;17.056;2023-07-29T17:25:36;99725.83;;;17.67;99.01
54369;BME280;40266;52.434;17.056;2023-07-29T17:28:19;99730.81;;;17.55;99.46
54369;BME280;40266;52.434;17.056;2023-07-29T17:31:02;99727.24;;;17.47;99.88
54369;BME280;40266;52.434;17.056;2023-07-29T17:33:45;99724.50;;;17.43;99.99
54369;BME280;40266;52.434;17.056;2023-07-29T17:36:28;99721.60;;;17.38;100.00
54369;BME280;40266;52.434;17.056;2023-07-29T17:39:12;99714.54;;;17.35;100.00
54369;BME280;40266;52.434;17.056;2023-07-29T17:41:55;99705.60;;;17.34;100.00
54369;BME280;40266;52.434;17.056;2023-07-29T17:44:38;99701.84;;;17.32;100.00
54369;BME280;40266;52.434;17.056;2023-07-29T17:47:21;99705.90;;;17.32;100.00
54369;BME280;40266;52.434;17.056;2023-07-29T17:50:05;99707.80;;;17.30;100.00
54369;BME280;40266;52.434;17.056;2023-07-29T17:52:48;99710.67;;;17.29;100.00
54369;BME280;40266;52.434;17.056;2023-07-29T17:55:36;99714.80;;;17.28;100.00
54369;BME280;40266;52.434;17.056;2023-07-29T17:58:19;99710.91;;;17.28;100.00
54369;BME280;40266;52.434;17.056;2023-07-29T18:01:03;99715.61;;;17.29;100.00
54369;BME280;40266;52.434;17.056;2023-07-29T18:03:46;99719.70;;;17.28;100.00
54369;BME280;40266;52.434;17.056;2023-07-29T18:06:29;99724.23;;;17.29;100.00
54369;BME280;40266;52.434;17.056;2023-07-29T18:09:13;99722.60;;;17.30;100.00
54369;BME280;40266;52.434;17.056;2023-07-29T18:11:56;99727.00;;;17.30;100.00
54369;BME280;40266;52.434;17.056;2023-07-29T18:14:43;99729.40;;;17.32;100.00
54369;BME280;40266;52.434;17.056;2023-07-29T18:17:27;99729.70;;;17.33;100.00
54369;BME280;40266;52.434;17.056;2023-07-29T18:20:10;99733.42;;;17.35;100.00
54369;BME280;40266;52.434;17.056;2023-07-29T18:22:54;99735.62;;;17.37;100.00
54369;BME280;40266;52.434;17.056;2023-07-29T18:25:47;99740.70;;;17.38;100.00
54369;BME280;40266;52.434;17.056;2023-07-29T18:28:35;99740.15;;;17.38;100.00
54369;BME280;40266;52.434;17.056;2023-07-29T18:31:18;99744.45;;;17.40;100.00
54369;BME280;40266;52.434;17.056;2023-07-29T18:34:01;99745.49;;;17.40;100.00
54369;BME280;40266;52.434;17.056;2023-07-29T18:36:44;99746.55;;;17.40;100.00
54369;BME280;40266;52.434;17.056;2023-07-29T18:39:28;99751.55;;;17.39;100.00
54369;BME280;40266;52.434;17.056;2023-07-29T18:42:11;99751.66;;;17.40;100.00
54369;BME280;40266;52.434;17.056;2023-07-29T18:44:55;99747.41;;;17.40;100.00
54369;BME280;40266;52.434;17.056;2023-07-29T18:47:38;99741.09;;;17.39;100.00
54369;BME280;40266;52.434;17.056;2023-07-29T18:50:21;99743.70;;;17.40;100.00
54369;BME280;40266;52.434;17.056;2023-07-29T18:53:04;99740.55;;;17.40;100.00
54369;BME280;40266;52.434;17.056;2023-07-29T18:55:47;99730.85;;;17.40;100.00
54369;BME280;40266;52.434;17.056;2023-07-29T18:58:30;99726.29;;;17.39;100.00
54369;BME280;40266;52.434;17.056;2023-07-29T19:01:13;99716.61;;;17.39;100.00
54369;BME280;40266;52.434;17.056;2023-07-29T19:03:56;99702.46;;;17.36;100.00
54369;BME280;40266;52.434;17.056;2023-07-29T19:06:39;99698.11;;;17.35;100.00
54369;BME280;40266;52.434;17.056;2023-07-29T19:09:23;99691.81;;;17.35;100.00
54369;BME280;40266;52.434;17.056;2023-07-29T19:12:08;99682.87;;;17.34;100.00
54369;BME280;40266;52.434;17.056;2023-07-29T19:14:51;99688.05;;;17.33;100.00
54369;BME280;40266;52.434;17.056;2023-07-29T19:17:35;99697.46;;;17.32;100.00
54369;BME280;40266;52.434;17.056;2023-07-29T19:20:18;99699.88;;;17.29;100.00
54369;BME280;40266;52.434;17.056;2023-07-29T19:23:01;99698.98;;;17.26;100.00
54369;BME280;40266;52.434;17.056;2023-07-29T19:25:45;99696.31;;;17.22;100.00
54369;BME280;40266;52.434;17.056;2023-07-29T19:28:28;99697.92;;;17.18;100.00
54369;BME280;40266;52.434;17.056;2023-07-29T19:31:11;99702.76;;;17.17;100.00
54369;BME280;40266;52.434;17.056;2023-07-29T19:33:56;99709.50;;;17.17;100.00
54369;BME280;40266;52.434;17.056;2023-07-29T19:36:39;99712.19;;;17.16;100.00
54369;BME280;40266;52.434;17.056;2023-07-29T19:39:22;99717.25;;;17.14;100.00
54369;BME280;40266;52.434;17.056;2023-07-29T19:42:05;99732.42;;;17.11;100.00
54369;BME280;40266;52.434;17.056;2023-07-29T19:44:48;99736.55;;;17.09;100.00
54369;BME280;40266;52.434;17.056;2023-07-29T19:47:31;99738.63;;;17.07;100.00
54369;BME280;40266;52.434;17.056;2023-07-29T19:50:14;99741.77;;;17.05;100.00
54369;BME280;40266;52.434;17.056;2023-07-29T19:52:57;99738.56;;;17.02;100.00
54369;BME280;40266;52.434;17.056;2023-07-29T19:55:40;99736.77;;;17.00;100.00
54369;BME280;40266;52.434;17.056;2023-07-29T19:58:23;99737.18;;;16.96;100.00
54369;BME280;40266;52.434;17.056;2023-07-29T20:01:06;99729.30;;;16.92;100.00
54369;BME280;40266;52.434;17.056;2023-07-29T20:03:49;99714.66;;;16.86;100.00
54369;BME280;40266;52.434;17.056;2023-07-29T20:06:32;99717.63;;;16.83;100.00
54369;BME280;40266;52.434;17.056;2023-07-29T20:09:16;99719.95;;;16.79;100.00
54369;BME280;40266;52.434;17.056;2023-07-29T20:11:59;99722.05;;;16.77;100.00
54369;BME280;40266;52.434;17.056;2023-07-29T20:14:42;99725.36;;;16.74;100.00
54369;BME280;40266;52.434;17.056;2023-07-29T20:17:26;99736.07;;;16.72;100.00
54369;BME280;40266;52.434;17.056;2023-07-29T20:20:10;99748.19;;;16.70;100.00
54369;BME280;40266;52.434;17.056;2023-07-29T20:22:53;99758.42;;;16.66;100.00
54369;BME280;40266;52.434;17.056;2023-07-29T20:25:36;99763.27;;;16.64;100.00
54369;BME280;40266;52.434;17.056;2023-07-29T20:28:19;99757.27;;;16.61;100.00
54369;BME280;40266;52.434;17.056;2023-07-29T20:31:04;99753.91;;;16.59;100.00
54369;BME280;40266;52.434;17.056;2023-07-29T20:33:47;99754.80;;;16.56;100.00
54369;BME280;40266;52.434;17.056;2023-07-29T20:36:30;99754.39;;;16.53;100.00
54369;BME280;40266;52.434;17.056;2023-07-29T20:39:13;99751.61;;;16.53;100.00
54369;BME280;40266;52.434;17.056;2023-07-29T20:41:57;99748.62;;;16.53;100.00
54369;BME280;40266;52.434;17.056;2023-07-29T20:44:40;99745.81;;;16.52;100.00
54369;BME280;40266;52.434;17.056;2023-07-29T20:47:23;99756.05;;;16.52;100.00
54369;BME280;40266;52.434;17.056;2023-07-29T20:50:07;99757.67;;;16.52;100.00
54369;BME280;40266;52.434;17.056;2023-07-29T20:52:50;99759.71;;;16.53;100.00
54369;BME280;40266;52.434;17.056;2023-07-29T20:55:34;99761.23;;;16.54;100.00
54369;BME280;40266;52.434;17.056;2023-07-29T20:58:17;99763.31;;;16.55;100.00
54369;BME280;40266;52.434;17.056;2023-07-29T21:01:03;99761.58;;;16.54;100.00
54369;BME280;40266;52.434;17.056;2023-07-29T21:03:46;99766.95;;;16.56;100.00
54369;BME280;40266;52.434;17.056;2023-07-29T21:06:29;99763.35;;;16.57;100.00
54369;BME280;40266;52.434;17.056;2023-07-29T21:09:12;99758.70;;;16.58;100.00
54369;BME280;40266;52.434;17.056;2023-07-29T21:11:56;99748.64;;;16.58;100.00
54369;BME280;40266;52.434;17.056;2023-07-29T21:14:39;99745.39;;;16.60;100.00
54369;BME280;40266;52.434;17.056;2023-07-29T21:17:22;99742.67;;;16.61;100.00
54369;BME280;40266;52.434;17.056;2023-07-29T21:20:06;99738.05;;;16.62;100.00
54369;BME280;40266;52.434;17.056;2023-07-29T21:22:50;99738.05;;;16.62;100.00
54369;BME280;40266;52.434;17.056;2023-07-29T21:25:33;99740.86;;;16.62;100.00
54369;BME280;40266;52.434;17.056;2023-07-29T21:28:17;99744.09;;;16.61;100.00
54369;BME280;40266;52.434;17.056;2023-07-29T21:31:01;99753.27;;;16.61;100.00
54369;BME280;40266;52.434;17.056;2023-07-29T21:33:45;99742.79;;;16.59;100.00
54369;BME280;40266;52.434;17.056;2023-07-29T21:36:28;99735.83;;;16.58;100.00
54369;BME280;40266;52.434;17.056;2023-07-29T21:39:11;99731.50;;;16.56;100.00
54369;BME280;40266;52.434;17.056;2023-07-29T21:41:54;99729.88;;;16.54;100.00
54369;BME280;40266;52.434;17.056;2023-07-29T21:44:38;99729.13;;;16.51;100.00
54369;BME280;40266;52.434;17.056;2023-07-29T21:47:21;99725.23;;;16.49;100.00
54369;BME280;40266;52.434;17.056;2023-07-29T21:50:05;99735.11;;;16.45;100.00
54369;BME280;40266;52.434;17.056;2023-07-29T21:52:48;99736.95;;;16.44;100.00
54369;BME280;40266;52.434;17.056;2023-07-29T21:55:31;99740.14;;;16.43;100.00
54369;BME280;40266;52.434;17.056;2023-07-29T21:58:14;99742.23;;;16.44;100.00
54369;BME280;40266;52.434;17.056;2023-07-29T22:00:57;99741.58;;;16.43;100.00
54369;BME280;40266;52.434;17.056;2023-07-29T22:03:40;99744.19;;;16.43;100.00
54369;BME280;40266;52.434;17.056;2023-07-29T22:06:23;99749.84;;;16.43;100.00
54369;BME280;40266;52.434;17.056;2023-07-29T22:09:08;99750.17;;;16.44;100.00
54369;BME280;40266;52.434;17.056;2023-07-29T22:11:51;99751.23;;;16.44;100.00
54369;BME280;40266;52.434;17.056;2023-07-29T22:14:34;99755.81;;;16.44;100.00
54369;BME280;40266;52.434;17.056;2023-07-29T22:17:17;99764.91;;;16.45;100.00
54369;BME280;40266;52.434;17.056;2023-07-29T22:20:01;99774.45;;;16.45;100.00
54369;BME280;40266;52.434;17.056;2023-07-29T22:22:45;99774.52;;;16.43;100.00
54369;BME280;40266;52.434;17.056;2023-07-29T22:25:28;99775.59;;;16.43;100.00
54369;BME280;40266;52.434;17.056;2023-07-29T22:28:11;99777.17;;;16.43;100.00
54369;BME280;40266;52.434;17.056;2023-07-29T22:30:57;99778.13;;;16.42;100.00
54369;BME280;40266;52.434;17.056;2023-07-29T22:33:48;99773.87;;;16.42;100.00
54369;BME280;40266;52.434;17.056;2023-07-29T22:36:31;99773.16;;;16.42;100.00
54369;BME280;40266;52.434;17.056;2023-07-29T22:39:14;99776.69;;;16.42;100.00
54369;BME280;40266;52.434;17.056;2023-07-29T22:41:57;99781.73;;;16.43;100.00
54369;BME280;40266;52.434;17.056;2023-07-29T22:44:41;99787.50;;;16.44;100.00
54369;BME280;40266;52.434;17.056;2023-07-29T22:47:24;99785.30;;;16.46;100.00
54369;BME280;40266;52.434;17.056;2023-07-29T22:50:07;99786.77;;;16.48;100.00
54369;BME280;40266;52.434;17.056;2023-07-29T22:52:51;99789.05;;;16.48;100.00
54369;BME280;40266;52.434;17.056;2023-07-29T22:55:34;99780.55;;;16.49;100.00
54369;BME280;40266;52.434;17.056;2023-07-29T22:58:20;99778.27;;;16.49;100.00
54369;BME280;40266;52.434;17.056;2023-07-29T23:01:03;99775.99;;;16.49;100.00
54369;BME280;40266;52.434;17.056;2023-07-29T23:03:46;99778.66;;;16.48;100.00
54369;BME280;40266;52.434;17.056;2023-07-29T23:06:30;99781.00;;;16.47;100.00
54369;BME280;40266;52.434;17.056;2023-07-29T23:09:13;99781.02;;;16.44;100.00
54369;BME280;40266;52.434;17.056;2023-07-29T23:11:56;99791.17;;;16.42;100.00
54369;BME280;40266;52.434;17.056;2023-07-29T23:14:39;99801.29;;;16.40;100.00
54369;BME280;40266;52.434;17.056;2023-07-29T23:17:25;99802.74;;;16.37;100.00
54369;BME280;40266;52.434;17.056;2023-07-29T23:20:13;99798.70;;;16.33;100.00
54369;BME280;40266;52.434;17.056;2023-07-29T23:22:56;99801.60;;;16.32;100.00
54369;BME280;40266;52.434;17.056;2023-07-29T23:25:39;99801.71;;;16.30;100.00
54369;BME280;40266;52.434;17.056;2023-07-29T23:28:22;99806.65;;;16.30;100.00
54369;BME280;40266;52.434;17.056;2023-07-29T23:31:05;99810.89;;;16.30;100.00
54369;BME280;40266;52.434;17.056;2023-07-29T23:33:48;99810.33;;;16.30;100.00
54369;BME280;40266;52.434;17.056;2023-07-29T23:36:31;99807.04;;;16.32;100.00
54369;BME280;40266;52.434;17.056;2023-07-29T23:39:14;99811.14;;;16.34;100.00
54369;BME280;40266;52.434;17.056;2023-07-29T23:41:57;99814.05;;;16.39;100.00
54369;BME280;40266;52.434;17.056;2023-07-29T23:44:40;99814.81;;;16.48;100.00
54369;BME280;40266;52.434;17.056;2023-07-29T23:47:23;99815.48;;;16.55;100.00
54369;BME280;40266;52.434;17.056;2023-07-29T23:50:07;99819.61;;;16.60;100.00
54369;BME280;40266;52.434;17.056;2023-07-29T23:52:51;99819.70;;;16.67;100.00
54369;BME280;40266;52.434;17.056;2023-07-29T23:55:34;99818.91;;;16.76;100.00
54369;BME280;40266;52.434;17.056;2023-07-29T23:58:17;99823.58;;;16.84;100.00
